sensor_id;sensor_type;location;lat;lon;timestamp;P1;durP1;ratioP1;P2;durP2;ratioP2
2001;SDS011;1003;48.002;7.788;2023-08-01T00:01:37;5.37;;;3.00;;
2001;SDS011;1003;48.002;7.788;2023-08-01T00:04:09;4.80;;;3.03;;
2001;SDS011;1003;48.002;7.788;2023-08-01T00:06:36;5.37;;;2.83;;
2001;SDS011;1003;48.002;7.788;2023-08-01T00:09:03;4.80;;;3.10;;
2001;SDS011;1003;48.002;7.788;2023-08-01T00:11:30;4.30;;;3.40;;
2001;SDS011;1003;48.002;7.788;2023-08-01T00:13:57;4.83;;;3.00;;
2001;SDS011;1003;48.002;7.788;2023-08-01T00:16:24;4.63;;;3.53;;
2001;SDS011;1003;48.002;7.788;2023-08-01T00:18:51;5.63;;;3.00;;
2001;SDS011;1003;48.002;7.788;2023-08-01T00:21:20;3.77;;;3.00;;
2001;SDS011;1003;48.002;7.788;2023-08-01T00:23:47;6.27;;;3.60;;
2001;SDS011;1003;48.002;7.788;2023-08-01T00:26:14;4.87;;;3.47;;
2001;SDS011;1003;48.002;7.788;2023-08-01T00:28:41;4.90;;;3.10;;
2001;SDS011;1003;48.002;7.788;2023-08-01T00:31:08;4.63;;;3.27;;
2001;SDS011;1003;48.002;7.788;2023-08-01T00:33:35;4.80;;;3.17;;
2001;SDS011;1003;48.002;7.788;2023-08-01T00:36:02;4.40;;;3.20;;
2001;SDS011;1003;48.002;7.788;2023-08-01T00:38:35;4.77;;;3.10;;
2001;SDS011;1003;48.002;7.788;2023-08-01T00:41:02;4.53;;;3.17;;
2001;SDS011;1003;48.002;7.788;2023-08-01T00:43:29;5.30;;;3.20;;
2001;SDS011;1003;48.002;7.788;2023-08-01T00:45:58;5.30;;;3.73;;
2001;SDS011;1003;48.002;7.788;2023-08-01T00:48:29;5.70;;;3.70;;
2001;SDS011;1003;48.002;7.788;2023-08-01T00:50:57;5.73;;;3.40;;
2001;SDS011;1003;48.002;7.788;2023-08-01T00:53:26;6.13;;;3.43;;
2001;SDS011;1003;48.002;7.788;2023-08-01T00:55:55;6.03;;;3.83;;
2001;SDS011;1003;48.002;7.788;2023-08-01T00:58:24;4.73;;;3.33;;
2001;SDS011;1003;48.002;7.788;2023-08-01T01:00:52;5.67;;;3.83;;
2001;SDS011;1003;48.002;7.788;2023-08-01T01:03:20;6.53;;;3.70;;
2001;SDS011;1003;48.002;7.788;2023-08-01T01:05:49;6.33;;;3.27;;
2001;SDS011;1003;48.002;7.788;2023-08-01T01:08:27;5.13;;;3.43;;
2001;SDS011;1003;48.002;7.788;2023-08-01T01:10:55;4.00;;;3.30;;
2001;SDS011;1003;48.002;7.788;2023-08-01T01:13:23;4.10;;;3.10;;
2001;SDS011;1003;48.002;7.788;2023-08-01T01:15:50;3.33;;;2.80;;
2001;SDS011;1003;48.002;7.788;2023-08-01T01:18:17;4.03;;;2.80;;
2001;SDS011;1003;48.002;7.788;2023-08-01T01:20:45;4.83;;;3.10;;
2001;SDS011;1003;48.002;7.788;2023-08-01T01:23:12;4.67;;;2.83;;
2001;SDS011;1003;48.002;7.788;2023-08-01T01:25:39;4.93;;;2.90;;
2001;SDS011;1003;48.002;7.788;2023-08-01T01:28:08;5.17;;;2.97;;
2001;SDS011;1003;48.002;7.788;2023-08-01T01:30:37;4.27;;;3.07;;
2001;SDS011;1003;48.002;7.788;2023-08-01T01:33:05;3.93;;;2.93;;
2001;SDS011;1003;48.002;7.788;2023-08-01T01:35:34;5.23;;;3.03;;
2001;SDS011;1003;48.002;7.788;2023-08-01T01:38:02;5.37;;;2.80;;
2001;SDS011;1003;48.002;7.788;2023-08-01T01:40:30;5.87;;;2.90;;
2001;SDS011;1003;48.002;7.788;2023-08-01T01:42:57;7.23;;;2.77;;
2001;SDS011;1003;48.002;7.788;2023-08-01T01:45:26;4.57;;;2.93;;
2001;SDS011;1003;48.002;7.788;2023-08-01T01:47:53;4.37;;;3.00;;
2001;SDS011;1003;48.002;7.788;2023-08-01T01:50:21;4.03;;;2.90;;
2001;SDS011;1003;48.002;7.788;2023-08-01T01:52:48;3.67;;;2.50;;
2001;SDS011;1003;48.002;7.788;2023-08-01T01:55:16;4.03;;;2.80;;
2001;SDS011;1003;48.002;7.788;2023-08-01T01:57:43;4.00;;;2.60;;
2001;SDS011;1003;48.002;7.788;2023-08-01T02:00:11;4.60;;;2.67;;
2001;SDS011;1003;48.002;7.788;2023-08-01T02:02:38;3.33;;;2.50;;
2001;SDS011;1003;48.002;7.788;2023-08-01T02:05:06;3.77;;;2.60;;
2001;SDS011;1003;48.002;7.788;2023-08-01T02:07:33;4.77;;;2.50;;
2001;SDS011;1003;48.002;7.788;2023-08-01T02:10:00;4.83;;;2.63;;
2001;SDS011;1003;48.002;7.788;2023-08-01T02:12:29;3.53;;;2.70;;
2001;SDS011;1003;48.002;7.788;2023-08-01T02:14:57;4.07;;;2.50;;
2001;SDS011;1003;48.002;7.788;2023-08-01T02:17:24;4.23;;;2.20;;
2001;SDS011;1003;48.002;7.788;2023-08-01T02:19:51;3.23;;;2.37;;
2001;SDS011;1003;48.002;7.788;2023-08-01T02:22:18;3.40;;;2.57;;
2001;SDS011;1003;48.002;7.788;2023-08-01T02:24:45;5.63;;;2.73;;
2001;SDS011;1003;48.002;7.788;2023-08-01T02:27:12;3.93;;;2.70;;
2001;SDS011;1003;48.002;7.788;2023-08-01T02:29:41;4.70;;;2.67;;
2001;SDS011;1003;48.002;7.788;2023-08-01T02:32:09;3.97;;;2.53;;
2001;SDS011;1003;48.002;7.788;2023-08-01T02:34:36;3.43;;;2.40;;
2001;SDS011;1003;48.002;7.788;2023-08-01T02:37:03;4.33;;;2.70;;
2001;SDS011;1003;48.002;7.788;2023-08-01T02:39:31;6.10;;;2.83;;
2001;SDS011;1003;48.002;7.788;2023-08-01T02:41:58;5.10;;;2.37;;
2001;SDS011;1003;48.002;7.788;2023-08-01T02:44:25;4.07;;;2.50;;
2001;SDS011;1003;48.002;7.788;2023-08-01T02:46:54;3.57;;;2.53;;
2001;SDS011;1003;48.002;7.788;2023-08-01T02:49:21;5.37;;;2.67;;
2001;SDS011;1003;48.002;7.788;2023-08-01T02:51:48;4.30;;;2.43;;
2001;SDS011;1003;48.002;7.788;2023-08-01T02:54:15;5.33;;;2.80;;
2001;SDS011;1003;48.002;7.788;2023-08-01T02:56:42;4.00;;;2.80;;
2001;SDS011;1003;48.002;7.788;2023-08-01T02:59:09;7.73;;;2.73;;
2001;SDS011;1003;48.002;7.788;2023-08-01T03:01:37;3.67;;;2.50;;
2001;SDS011;1003;48.002;7.788;2023-08-01T03:04:06;5.27;;;3.00;;
2001;SDS011;1003;48.002;7.788;2023-08-01T03:06:33;3.47;;;2.50;;
2001;SDS011;1003;48.002;7.788;2023-08-01T03:09:00;4.63;;;2.90;;
2001;SDS011;1003;48.002;7.788;2023-08-01T03:11:27;4.37;;;2.53;;
2001;SDS011;1003;48.002;7.788;2023-08-01T03:13:57;4.27;;;2.30;;
2001;SDS011;1003;48.002;7.788;2023-08-01T03:16:24;6.00;;;3.03;;
2001;SDS011;1003;48.002;7.788;2023-08-01T03:18:51;5.20;;;2.80;;
2001;SDS011;1003;48.002;7.788;2023-08-01T03:21:20;4.13;;;2.53;;
2001;SDS011;1003;48.002;7.788;2023-08-01T03:23:47;3.93;;;2.67;;
2001;SDS011;1003;48.002;7.788;2023-08-01T03:26:14;5.53;;;2.53;;
2001;SDS011;1003;48.002;7.788;2023-08-01T03:28:43;4.63;;;2.70;;
2001;SDS011;1003;48.002;7.788;2023-08-01T03:31:10;4.50;;;2.70;;
2001;SDS011;1003;48.002;7.788;2023-08-01T03:33:37;6.23;;;3.00;;
2001;SDS011;1003;48.002;7.788;2023-08-01T03:36:04;5.17;;;3.00;;
2001;SDS011;1003;48.002;7.788;2023-08-01T03:38:32;6.20;;;2.90;;
2001;SDS011;1003;48.002;7.788;2023-08-01T03:40:59;4.60;;;2.80;;
2001;SDS011;1003;48.002;7.788;2023-08-01T03:43:26;4.50;;;2.70;;
2001;SDS011;1003;48.002;7.788;2023-08-01T03:45:53;6.77;;;2.83;;
2001;SDS011;1003;48.002;7.788;2023-08-01T03:48:20;3.73;;;2.80;;
2001;SDS011;1003;48.002;7.788;2023-08-01T03:50:47;6.27;;;2.90;;
2001;SDS011;1003;48.002;7.788;2023-08-01T03:53:14;3.40;;;2.63;;
2001;SDS011;1003;48.002;7.788;2023-08-01T03:55:44;5.03;;;2.70;;
2001;SDS011;1003;48.002;7.788;2023-08-01T03:58:13;5.20;;;2.90;;
2001;SDS011;1003;48.002;7.788;2023-08-01T04:00:40;6.50;;;2.93;;
2001;SDS011;1003;48.002;7.788;2023-08-01T04:03:07;4.30;;;2.73;;
2001;SDS011;1003;48.002;7.788;2023-08-01T04:05:34;4.20;;;2.47;;
2001;SDS011;1003;48.002;7.788;2023-08-01T04:08:01;3.53;;;2.50;;
2001;SDS011;1003;48.002;7.788;2023-08-01T04:10:29;3.87;;;2.87;;
2001;SDS011;1003;48.002;7.788;2023-08-01T04:12:57;4.37;;;2.73;;
2001;SDS011;1003;48.002;7.788;2023-08-01T04:15:24;5.07;;;2.80;;
2001;SDS011;1003;48.002;7.788;2023-08-01T04:17:51;6.77;;;2.93;;
2001;SDS011;1003;48.002;7.788;2023-08-01T04:20:18;5.17;;;2.90;;
2001;SDS011;1003;48.002;7.788;2023-08-01T04:22:46;6.20;;;2.80;;
2001;SDS011;1003;48.002;7.788;2023-08-01T04:25:13;6.33;;;2.70;;
2001;SDS011;1003;48.002;7.788;2023-08-01T04:27:40;5.80;;;3.30;;
2001;SDS011;1003;48.002;7.788;2023-08-01T04:30:09;5.47;;;2.87;;
2001;SDS011;1003;48.002;7.788;2023-08-01T04:32:37;5.63;;;3.20;;
2001;SDS011;1003;48.002;7.788;2023-08-01T04:35:04;5.40;;;2.87;;
2001;SDS011;1003;48.002;7.788;2023-08-01T04:37:34;5.57;;;3.33;;
2001;SDS011;1003;48.002;7.788;2023-08-01T04:40:02;6.97;;;3.37;;
2001;SDS011;1003;48.002;7.788;2023-08-01T04:42:29;5.63;;;3.03;;
2001;SDS011;1003;48.002;7.788;2023-08-01T04:44:57;4.47;;;3.00;;
2001;SDS011;1003;48.002;7.788;2023-08-01T04:47:25;8.90;;;3.30;;
2001;SDS011;1003;48.002;7.788;2023-08-01T04:49:52;6.37;;;3.10;;
2001;SDS011;1003;48.002;7.788;2023-08-01T04:52:19;7.90;;;3.80;;
2001;SDS011;1003;48.002;7.788;2023-08-01T04:54:46;6.30;;;3.30;;
2001;SDS011;1003;48.002;7.788;2023-08-01T04:57:13;6.43;;;3.30;;
2001;SDS011;1003;48.002;7.788;2023-08-01T04:59:40;4.83;;;3.27;;
2001;SDS011;1003;48.002;7.788;2023-08-01T05:02:07;6.20;;;3.20;;
2001;SDS011;1003;48.002;7.788;2023-08-01T05:04:35;6.33;;;3.23;;
2001;SDS011;1003;48.002;7.788;2023-08-01T05:07:03;5.40;;;3.37;;
2001;SDS011;1003;48.002;7.788;2023-08-01T05:09:31;6.43;;;2.90;;
2001;SDS011;1003;48.002;7.788;2023-08-01T05:11:58;6.87;;;3.50;;
2001;SDS011;1003;48.002;7.788;2023-08-01T05:14:25;4.97;;;2.83;;
2001;SDS011;1003;48.002;7.788;2023-08-01T05:16:52;7.57;;;3.20;;
2001;SDS011;1003;48.002;7.788;2023-08-01T05:19:20;5.10;;;2.90;;
2001;SDS011;1003;48.002;7.788;2023-08-01T05:21:48;5.23;;;3.00;;
2001;SDS011;1003;48.002;7.788;2023-08-01T05:24:15;5.53;;;3.30;;
2001;SDS011;1003;48.002;7.788;2023-08-01T05:26:42;4.87;;;2.83;;
2001;SDS011;1003;48.002;7.788;2023-08-01T05:29:09;5.67;;;3.20;;
2001;SDS011;1003;48.002;7.788;2023-08-01T05:31:36;5.50;;;3.33;;
2001;SDS011;1003;48.002;7.788;2023-08-01T05:34:03;6.43;;;3.07;;
2001;SDS011;1003;48.002;7.788;2023-08-01T05:36:30;4.00;;;3.00;;
2001;SDS011;1003;48.002;7.788;2023-08-01T05:38:58;4.43;;;2.73;;
2001;SDS011;1003;48.002;7.788;2023-08-01T05:41:25;7.17;;;3.20;;
2001;SDS011;1003;48.002;7.788;2023-08-01T05:43:52;6.57;;;3.20;;
2001;SDS011;1003;48.002;7.788;2023-08-01T05:46:19;7.07;;;3.27;;
2001;SDS011;1003;48.002;7.788;2023-08-01T05:48:46;6.50;;;3.20;;
2001;SDS011;1003;48.002;7.788;2023-08-01T05:51:13;7.97;;;3.33;;
2001;SDS011;1003;48.002;7.788;2023-08-01T05:53:40;5.53;;;3.40;;
2001;SDS011;1003;48.002;7.788;2023-08-01T05:56:09;4.93;;;3.00;;
2001;SDS011;1003;48.002;7.788;2023-08-01T05:58:36;6.80;;;3.30;;
2001;SDS011;1003;48.002;7.788;2023-08-01T06:01:03;3.50;;;2.73;;
2001;SDS011;1003;48.002;7.788;2023-08-01T06:03:31;5.37;;;2.97;;
2001;SDS011;1003;48.002;7.788;2023-08-01T06:05:58;5.97;;;3.33;;
2001;SDS011;1003;48.002;7.788;2023-08-01T06:08:25;5.63;;;3.23;;
2001;SDS011;1003;48.002;7.788;2023-08-01T06:10:52;6.17;;;3.40;;
2001;SDS011;1003;48.002;7.788;2023-08-01T06:13:21;4.40;;;3.20;;
2001;SDS011;1003;48.002;7.788;2023-08-01T06:15:48;5.40;;;3.40;;
2001;SDS011;1003;48.002;7.788;2023-08-01T06:18:15;5.70;;;3.10;;
2001;SDS011;1003;48.002;7.788;2023-08-01T06:20:42;4.67;;;3.10;;
2001;SDS011;1003;48.002;7.788;2023-08-01T06:23:09;5.43;;;3.57;;
2001;SDS011;1003;48.002;7.788;2023-08-01T06:25:36;7.30;;;3.00;;
2001;SDS011;1003;48.002;7.788;2023-08-01T06:28:03;5.00;;;3.20;;
2001;SDS011;1003;48.002;7.788;2023-08-01T06:30:32;5.37;;;3.00;;
2001;SDS011;1003;48.002;7.788;2023-08-01T06:32:58;6.47;;;3.40;;
2001;SDS011;1003;48.002;7.788;2023-08-01T06:35:26;5.40;;;3.53;;
2001;SDS011;1003;48.002;7.788;2023-08-01T06:37:53;8.57;;;3.50;;
2001;SDS011;1003;48.002;7.788;2023-08-01T06:40:20;4.47;;;3.20;;
2001;SDS011;1003;48.002;7.788;2023-08-01T06:42:47;6.77;;;3.67;;
2001;SDS011;1003;48.002;7.788;2023-08-01T06:45:15;5.53;;;3.30;;
2001;SDS011;1003;48.002;7.788;2023-08-01T06:47:43;5.07;;;3.30;;
2001;SDS011;1003;48.002;7.788;2023-08-01T06:50:10;6.00;;;3.23;;
2001;SDS011;1003;48.002;7.788;2023-08-01T06:52:37;5.90;;;3.40;;
2001;SDS011;1003;48.002;7.788;2023-08-01T06:55:05;7.30;;;3.30;;
2001;SDS011;1003;48.002;7.788;2023-08-01T06:57:35;6.07;;;3.20;;
2001;SDS011;1003;48.002;7.788;2023-08-01T07:00:02;6.20;;;3.30;;
2001;SDS011;1003;48.002;7.788;2023-08-01T07:02:30;6.47;;;3.20;;
2001;SDS011;1003;48.002;7.788;2023-08-01T07:04:59;6.63;;;3.47;;
2001;SDS011;1003;48.002;7.788;2023-08-01T07:07:26;5.77;;;3.27;;
2001;SDS011;1003;48.002;7.788;2023-08-01T07:09:53;6.53;;;2.90;;
2001;SDS011;1003;48.002;7.788;2023-08-01T07:12:20;4.87;;;2.90;;
2001;SDS011;1003;48.002;7.788;2023-08-01T07:14:47;4.73;;;3.20;;
2001;SDS011;1003;48.002;7.788;2023-08-01T07:17:14;5.23;;;3.13;;
2001;SDS011;1003;48.002;7.788;2023-08-01T07:19:41;5.20;;;2.80;;
2001;SDS011;1003;48.002;7.788;2023-08-01T07:22:10;5.17;;;3.13;;
2001;SDS011;1003;48.002;7.788;2023-08-01T07:24:37;9.03;;;3.60;;
2001;SDS011;1003;48.002;7.788;2023-08-01T07:27:04;7.80;;;3.40;;
2001;SDS011;1003;48.002;7.788;2023-08-01T07:29:32;6.20;;;3.40;;
2001;SDS011;1003;48.002;7.788;2023-08-01T07:31:59;4.83;;;2.83;;
2001;SDS011;1003;48.002;7.788;2023-08-01T07:34:26;5.23;;;3.00;;
2001;SDS011;1003;48.002;7.788;2023-08-01T07:36:53;6.13;;;3.20;;
2001;SDS011;1003;48.002;7.788;2023-08-01T07:39:22;4.57;;;2.93;;
2001;SDS011;1003;48.002;7.788;2023-08-01T07:41:49;4.50;;;2.90;;
2001;SDS011;1003;48.002;7.788;2023-08-01T07:44:16;5.80;;;3.00;;
2001;SDS011;1003;48.002;7.788;2023-08-01T07:46:43;5.53;;;2.97;;
2001;SDS011;1003;48.002;7.788;2023-08-01T07:49:10;4.90;;;3.00;;
2001;SDS011;1003;48.002;7.788;2023-08-01T07:51:37;5.00;;;2.77;;
2001;SDS011;1003;48.002;7.788;2023-08-01T07:54:04;4.60;;;2.90;;
2001;SDS011;1003;48.002;7.788;2023-08-01T07:56:32;5.37;;;3.03;;
2001;SDS011;1003;48.002;7.788;2023-08-01T07:58:59;6.10;;;3.13;;
2001;SDS011;1003;48.002;7.788;2023-08-01T08:01:26;5.40;;;3.00;;
2001;SDS011;1003;48.002;7.788;2023-08-01T08:03:53;7.83;;;3.40;;
2001;SDS011;1003;48.002;7.788;2023-08-01T08:06:20;5.97;;;3.37;;
2001;SDS011;1003;48.002;7.788;2023-08-01T08:08:48;5.40;;;2.83;;
2001;SDS011;1003;48.002;7.788;2023-08-01T08:11:16;5.80;;;3.10;;
2001;SDS011;1003;48.002;7.788;2023-08-01T08:13:44;7.50;;;2.90;;
2001;SDS011;1003;48.002;7.788;2023-08-01T08:16:11;5.93;;;3.40;;
2001;SDS011;1003;48.002;7.788;2023-08-01T08:18:38;6.33;;;3.03;;
2001;SDS011;1003;48.002;7.788;2023-08-01T08:21:05;4.17;;;3.10;;
2001;SDS011;1003;48.002;7.788;2023-08-01T08:23:32;5.40;;;3.10;;
2001;SDS011;1003;48.002;7.788;2023-08-01T08:25:59;4.47;;;2.80;;
2001;SDS011;1003;48.002;7.788;2023-08-01T08:28:27;4.67;;;2.97;;
2001;SDS011;1003;48.002;7.788;2023-08-01T08:30:57;4.17;;;2.60;;
2001;SDS011;1003;48.002;7.788;2023-08-01T08:33:25;4.30;;;2.53;;
2001;SDS011;1003;48.002;7.788;2023-08-01T08:35:52;3.73;;;2.60;;
2001;SDS011;1003;48.002;7.788;2023-08-01T08:38:19;3.83;;;2.50;;
2001;SDS011;1003;48.002;7.788;2023-08-01T08:40:48;3.17;;;2.50;;
2001;SDS011;1003;48.002;7.788;2023-08-01T08:43:27;3.63;;;2.47;;
2001;SDS011;1003;48.002;7.788;2023-08-01T08:45:59;2.37;;;2.00;;
2001;SDS011;1003;48.002;7.788;2023-08-01T08:48:29;3.10;;;2.40;;
2001;SDS011;1003;48.002;7.788;2023-08-01T08:50:59;3.37;;;2.10;;
2001;SDS011;1003;48.002;7.788;2023-08-01T08:53:28;3.83;;;2.37;;
2001;SDS011;1003;48.002;7.788;2023-08-01T08:55:57;3.47;;;2.10;;
2001;SDS011;1003;48.002;7.788;2023-08-01T08:58:26;3.03;;;2.10;;
2001;SDS011;1003;48.002;7.788;2023-08-01T09:00:55;3.90;;;2.00;;
2001;SDS011;1003;48.002;7.788;2023-08-01T09:03:24;3.97;;;2.10;;
2001;SDS011;1003;48.002;7.788;2023-08-01T09:05:52;3.57;;;2.20;;
2001;SDS011;1003;48.002;7.788;2023-08-01T09:08:28;3.30;;;2.40;;
2001;SDS011;1003;48.002;7.788;2023-08-01T09:11:00;4.03;;;2.00;;
2001;SDS011;1003;48.002;7.788;2023-08-01T09:13:27;3.30;;;2.20;;
2001;SDS011;1003;48.002;7.788;2023-08-01T09:15:54;3.20;;;2.20;;
2001;SDS011;1003;48.002;7.788;2023-08-01T09:18:24;3.37;;;2.20;;
2001;SDS011;1003;48.002;7.788;2023-08-01T09:20:52;4.23;;;2.27;;
2001;SDS011;1003;48.002;7.788;2023-08-01T09:23:24;3.50;;;1.80;;
2001;SDS011;1003;48.002;7.788;2023-08-01T09:25:52;3.57;;;2.13;;
2001;SDS011;1003;48.002;7.788;2023-08-01T09:28:20;3.93;;;2.20;;
2001;SDS011;1003;48.002;7.788;2023-08-01T09:30:49;2.27;;;2.00;;
2001;SDS011;1003;48.002;7.788;2023-08-01T09:33:20;3.10;;;2.00;;
2001;SDS011;1003;48.002;7.788;2023-08-01T09:35:50;2.20;;;2.00;;
2001;SDS011;1003;48.002;7.788;2023-08-01T09:38:18;4.43;;;2.00;;
2001;SDS011;1003;48.002;7.788;2023-08-01T09:40:45;2.77;;;1.83;;
2001;SDS011;1003;48.002;7.788;2023-08-01T09:43:14;2.87;;;2.00;;
2001;SDS011;1003;48.002;7.788;2023-08-01T09:45:51;3.40;;;2.23;;
2001;SDS011;1003;48.002;7.788;2023-08-01T09:48:22;2.83;;;2.30;;
2001;SDS011;1003;48.002;7.788;2023-08-01T09:51:02;4.07;;;2.00;;
2001;SDS011;1003;48.002;7.788;2023-08-01T09:53:32;3.43;;;1.90;;
2001;SDS011;1003;48.002;7.788;2023-08-01T09:56:00;2.10;;;1.90;;
2001;SDS011;1003;48.002;7.788;2023-08-01T09:58:28;3.73;;;1.87;;
2001;SDS011;1003;48.002;7.788;2023-08-01T10:01:00;3.00;;;2.10;;
2001;SDS011;1003;48.002;7.788;2023-08-01T10:03:28;3.63;;;2.37;;
2001;SDS011;1003;48.002;7.788;2023-08-01T10:05:56;2.23;;;2.00;;
2001;SDS011;1003;48.002;7.788;2023-08-01T10:08:25;4.07;;;1.93;;
2001;SDS011;1003;48.002;7.788;2023-08-01T10:10:57;2.10;;;1.90;;
2001;SDS011;1003;48.002;7.788;2023-08-01T10:13:24;2.80;;;1.80;;
2001;SDS011;1003;48.002;7.788;2023-08-01T10:15:52;6.40;;;2.10;;
2001;SDS011;1003;48.002;7.788;2023-08-01T10:18:20;4.10;;;2.20;;
2001;SDS011;1003;48.002;7.788;2023-08-01T10:20:48;3.53;;;2.10;;
2001;SDS011;1003;48.002;7.788;2023-08-01T10:23:18;2.90;;;2.40;;
2001;SDS011;1003;48.002;7.788;2023-08-01T10:25:46;2.53;;;1.90;;
2001;SDS011;1003;48.002;7.788;2023-08-01T10:28:13;2.30;;;1.90;;
2001;SDS011;1003;48.002;7.788;2023-08-01T10:30:40;3.33;;;2.10;;
2001;SDS011;1003;48.002;7.788;2023-08-01T10:33:07;2.47;;;1.80;;
2001;SDS011;1003;48.002;7.788;2023-08-01T10:35:38;2.23;;;2.00;;
2001;SDS011;1003;48.002;7.788;2023-08-01T10:38:06;3.17;;;1.80;;
2001;SDS011;1003;48.002;7.788;2023-08-01T10:40:36;2.53;;;1.70;;
2001;SDS011;1003;48.002;7.788;2023-08-01T10:43:18;1.97;;;1.70;;
2001;SDS011;1003;48.002;7.788;2023-08-01T10:45:47;1.93;;;1.63;;
2001;SDS011;1003;48.002;7.788;2023-08-01T10:48:14;2.10;;;1.70;;
2001;SDS011;1003;48.002;7.788;2023-08-01T10:50:41;2.17;;;1.67;;
2001;SDS011;1003;48.002;7.788;2023-08-01T10:53:09;2.63;;;1.60;;
2001;SDS011;1003;48.002;7.788;2023-08-01T10:55:41;1.97;;;1.53;;
2001;SDS011;1003;48.002;7.788;2023-08-01T10:58:12;2.33;;;1.57;;
2001;SDS011;1003;48.002;7.788;2023-08-01T11:00:40;3.03;;;1.47;;
2001;SDS011;1003;48.002;7.788;2023-08-01T11:03:08;1.63;;;1.37;;
2001;SDS011;1003;48.002;7.788;2023-08-01T11:05:36;1.73;;;1.50;;
2001;SDS011;1003;48.002;7.788;2023-08-01T11:08:03;1.90;;;1.33;;
2001;SDS011;1003;48.002;7.788;2023-08-01T11:10:31;1.50;;;1.40;;
2001;SDS011;1003;48.002;7.788;2023-08-01T11:13:00;2.60;;;1.43;;
2001;SDS011;1003;48.002;7.788;2023-08-01T11:15:27;1.70;;;1.47;;
2001;SDS011;1003;48.002;7.788;2023-08-01T11:17:54;2.57;;;1.30;;
2001;SDS011;1003;48.002;7.788;2023-08-01T11:20:22;2.83;;;1.87;;
2001;SDS011;1003;48.002;7.788;2023-08-01T11:22:53;1.40;;;1.30;;
2001;SDS011;1003;48.002;7.788;2023-08-01T11:25:32;1.30;;;1.20;;
2001;SDS011;1003;48.002;7.788;2023-08-01T11:28:02;1.03;;;1.03;;
2001;SDS011;1003;48.002;7.788;2023-08-01T11:30:32;1.30;;;1.20;;
2001;SDS011;1003;48.002;7.788;2023-08-01T11:33:00;2.20;;;1.20;;
2001;SDS011;1003;48.002;7.788;2023-08-01T11:35:28;2.10;;;1.20;;
2001;SDS011;1003;48.002;7.788;2023-08-01T11:37:55;1.47;;;1.37;;
2001;SDS011;1003;48.002;7.788;2023-08-01T11:40:23;1.27;;;1.17;;
2001;SDS011;1003;48.002;7.788;2023-08-01T11:42:51;1.50;;;1.40;;
2001;SDS011;1003;48.002;7.788;2023-08-01T11:45:25;1.93;;;1.40;;
2001;SDS011;1003;48.002;7.788;2023-08-01T11:47:52;1.40;;;1.30;;
2001;SDS011;1003;48.002;7.788;2023-08-01T11:50:22;1.70;;;1.30;;
2001;SDS011;1003;48.002;7.788;2023-08-01T11:52:52;1.83;;;1.17;;
2001;SDS011;1003;48.002;7.788;2023-08-01T11:55:23;3.50;;;1.00;;
2001;SDS011;1003;48.002;7.788;2023-08-01T11:57:56;2.10;;;1.20;;
2001;SDS011;1003;48.002;7.788;2023-08-01T12:00:28;0.97;;;0.97;;
2001;SDS011;1003;48.002;7.788;2023-08-01T12:03:05;1.27;;;0.90;;
2001;SDS011;1003;48.002;7.788;2023-08-01T12:05:38;1.10;;;1.00;;
2001;SDS011;1003;48.002;7.788;2023-08-01T12:08:11;1.17;;;1.07;;
2001;SDS011;1003;48.002;7.788;2023-08-01T12:10:39;1.93;;;1.20;;
2001;SDS011;1003;48.002;7.788;2023-08-01T12:13:18;1.00;;;0.90;;
2001;SDS011;1003;48.002;7.788;2023-08-01T12:15:48;1.20;;;1.10;;
2001;SDS011;1003;48.002;7.788;2023-08-01T12:18:19;2.20;;;1.30;;
2001;SDS011;1003;48.002;7.788;2023-08-01T12:20:48;1.87;;;1.10;;
2001;SDS011;1003;48.002;7.788;2023-08-01T12:23:15;1.40;;;1.30;;
2001;SDS011;1003;48.002;7.788;2023-08-01T12:25:43;1.13;;;1.03;;
2001;SDS011;1003;48.002;7.788;2023-08-01T12:28:10;1.07;;;1.03;;
2001;SDS011;1003;48.002;7.788;2023-08-01T12:30:39;1.27;;;0.93;;
2001;SDS011;1003;48.002;7.788;2023-08-01T12:33:08;1.73;;;1.20;;
2001;SDS011;1003;48.002;7.788;2023-08-01T12:35:38;1.20;;;1.10;;
2001;SDS011;1003;48.002;7.788;2023-08-01T12:38:07;0.97;;;0.90;;
2001;SDS011;1003;48.002;7.788;2023-08-01T12:40:34;0.97;;;0.93;;
2001;SDS011;1003;48.002;7.788;2023-08-01T12:43:01;0.83;;;0.70;;
2001;SDS011;1003;48.002;7.788;2023-08-01T12:45:28;1.13;;;0.80;;
2001;SDS011;1003;48.002;7.788;2023-08-01T12:47:55;1.20;;;0.90;;
2001;SDS011;1003;48.002;7.788;2023-08-01T12:50:24;0.70;;;0.67;;
2001;SDS011;1003;48.002;7.788;2023-08-01T12:52:51;0.90;;;0.90;;
2001;SDS011;1003;48.002;7.788;2023-08-01T12:55:18;0.93;;;0.90;;
2001;SDS011;1003;48.002;7.788;2023-08-01T12:57:45;1.10;;;1.00;;
2001;SDS011;1003;48.002;7.788;2023-08-01T13:00:12;1.20;;;0.80;;
2001;SDS011;1003;48.002;7.788;2023-08-01T13:02:40;1.53;;;0.70;;
2001;SDS011;1003;48.002;7.788;2023-08-01T13:05:07;0.80;;;0.80;;
2001;SDS011;1003;48.002;7.788;2023-08-01T13:07:36;0.87;;;0.87;;
2001;SDS011;1003;48.002;7.788;2023-08-01T13:10:04;1.10;;;1.00;;
2001;SDS011;1003;48.002;7.788;2023-08-01T13:12:32;0.67;;;0.67;;
2001;SDS011;1003;48.002;7.788;2023-08-01T13:15:00;0.60;;;0.60;;
2001;SDS011;1003;48.002;7.788;2023-08-01T13:17:27;0.70;;;0.70;;
2001;SDS011;1003;48.002;7.788;2023-08-01T13:19:54;1.60;;;0.90;;
2001;SDS011;1003;48.002;7.788;2023-08-01T13:22:21;1.17;;;0.60;;
2001;SDS011;1003;48.002;7.788;2023-08-01T13:24:49;0.77;;;0.77;;
2001;SDS011;1003;48.002;7.788;2023-08-01T13:27:16;1.20;;;1.07;;
2001;SDS011;1003;48.002;7.788;2023-08-01T13:29:43;3.63;;;1.37;;
2001;SDS011;1003;48.002;7.788;2023-08-01T13:32:11;1.03;;;0.90;;
2001;SDS011;1003;48.002;7.788;2023-08-01T13:34:38;0.87;;;0.87;;
2001;SDS011;1003;48.002;7.788;2023-08-01T13:37:05;1.17;;;0.97;;
2001;SDS011;1003;48.002;7.788;2023-08-01T13:39:34;1.03;;;0.93;;
2001;SDS011;1003;48.002;7.788;2023-08-01T13:42:02;1.20;;;0.80;;
2001;SDS011;1003;48.002;7.788;2023-08-01T13:44:30;1.77;;;1.10;;
2001;SDS011;1003;48.002;7.788;2023-08-01T13:46:58;1.53;;;0.93;;
2001;SDS011;1003;48.002;7.788;2023-08-01T13:49:25;1.27;;;0.90;;
2001;SDS011;1003;48.002;7.788;2023-08-01T13:51:52;1.70;;;0.80;;
2001;SDS011;1003;48.002;7.788;2023-08-01T13:54:19;0.93;;;0.83;;
2001;SDS011;1003;48.002;7.788;2023-08-01T13:56:46;0.63;;;0.63;;
2001;SDS011;1003;48.002;7.788;2023-08-01T13:59:14;0.90;;;0.90;;
2001;SDS011;1003;48.002;7.788;2023-08-01T14:01:47;0.90;;;0.90;;
2001;SDS011;1003;48.002;7.788;2023-08-01T14:04:14;1.00;;;0.60;;
2001;SDS011;1003;48.002;7.788;2023-08-01T14:06:41;0.80;;;0.77;;
2001;SDS011;1003;48.002;7.788;2023-08-01T14:09:08;0.70;;;0.70;;
2001;SDS011;1003;48.002;7.788;2023-08-01T14:11:35;2.17;;;0.70;;
2001;SDS011;1003;48.002;7.788;2023-08-01T14:14:03;0.70;;;0.63;;
2001;SDS011;1003;48.002;7.788;2023-08-01T14:16:32;0.93;;;0.73;;
2001;SDS011;1003;48.002;7.788;2023-08-01T14:18:59;0.60;;;0.60;;
2001;SDS011;1003;48.002;7.788;2023-08-01T14:21:26;0.87;;;0.87;;
2001;SDS011;1003;48.002;7.788;2023-08-01T14:23:53;1.60;;;0.80;;
2001;SDS011;1003;48.002;7.788;2023-08-01T14:26:20;0.57;;;0.57;;
2001;SDS011;1003;48.002;7.788;2023-08-01T14:28:47;1.23;;;0.70;;
2001;SDS011;1003;48.002;7.788;2023-08-01T14:31:15;1.13;;;0.70;;
2001;SDS011;1003;48.002;7.788;2023-08-01T14:33:43;0.90;;;0.73;;
2001;SDS011;1003;48.002;7.788;2023-08-01T14:36:10;0.73;;;0.73;;
2001;SDS011;1003;48.002;7.788;2023-08-01T14:38:38;0.87;;;0.80;;
2001;SDS011;1003;48.002;7.788;2023-08-01T14:41:05;0.73;;;0.67;;
2001;SDS011;1003;48.002;7.788;2023-08-01T14:43:35;0.90;;;0.70;;
2001;SDS011;1003;48.002;7.788;2023-08-01T14:46:02;1.00;;;0.90;;
2001;SDS011;1003;48.002;7.788;2023-08-01T14:48:29;0.80;;;0.80;;
2001;SDS011;1003;48.002;7.788;2023-08-01T14:50:58;0.70;;;0.70;;
2001;SDS011;1003;48.002;7.788;2023-08-01T14:53:25;0.90;;;0.90;;
2001;SDS011;1003;48.002;7.788;2023-08-01T14:55:56;0.90;;;0.90;;
2001;SDS011;1003;48.002;7.788;2023-08-01T14:58:24;0.90;;;0.80;;
2001;SDS011;1003;48.002;7.788;2023-08-01T15:00:52;0.90;;;0.90;;
2001;SDS011;1003;48.002;7.788;2023-08-01T15:03:19;1.30;;;1.20;;
2001;SDS011;1003;48.002;7.788;2023-08-01T15:05:46;0.93;;;0.93;;
2001;SDS011;1003;48.002;7.788;2023-08-01T15:08:14;0.90;;;0.90;;
2001;SDS011;1003;48.002;7.788;2023-08-01T15:10:41;0.97;;;0.83;;
2001;SDS011;1003;48.002;7.788;2023-08-01T15:13:08;0.73;;;0.73;;
2001;SDS011;1003;48.002;7.788;2023-08-01T15:15:35;1.03;;;1.03;;
2001;SDS011;1003;48.002;7.788;2023-08-01T15:18:03;1.10;;;1.00;;
2001;SDS011;1003;48.002;7.788;2023-08-01T15:20:30;1.07;;;1.03;;